createdAt,value
2023-03-10T00:01:30.038Z,3.15
2023-03-10T00:04:00.706Z,3.22
2023-03-10T00:06:33.358Z,2.55
2023-03-10T00:09:00.958Z,3.15
2023-03-10T00:11:28.309Z,1.95
2023-03-10T00:13:55.303Z,2.40
2023-03-10T00:16:29.069Z,1.77
2023-03-10T00:18:56.393Z,2.10
2023-03-10T00:21:27.620Z,2.42
2023-03-10T00:23:55.007Z,2.05
2023-03-10T00:26:24.028Z,2.47
2023-03-10T00:28:51.323Z,2.67
2023-03-10T00:31:22.461Z,2.42
2023-03-10T00:33:50.533Z,2.83
2023-03-10T00:36:25.367Z,3.00
2023-03-10T00:38:55.970Z,2.80
2023-03-10T00:41:26.819Z,2.38
2023-03-10T00:43:54.121Z,2.42
2023-03-10T00:46:21.394Z,2.15
2023-03-10T00:48:48.553Z,2.28
2023-03-10T00:51:16.520Z,2.58
2023-03-10T00:53:44.396Z,2.53
2023-03-10T00:56:21.095Z,2.70
2023-03-10T00:58:56.469Z,2.42
2023-03-10T01:01:34.037Z,1.00
2023-03-10T01:04:06.282Z,1.15
2023-03-10T01:06:50.367Z,0.50
2023-03-10T01:09:19.118Z,0.63
2023-03-10T01:11:46.098Z,0.40
2023-03-10T01:14:16.292Z,0.68
2023-03-10T01:16:43.648Z,0.55
2023-03-10T01:19:13.217Z,0.60
2023-03-10T01:21:41.989Z,0.50
2023-03-10T01:24:16.176Z,0.65
2023-03-10T01:26:43.495Z,0.88
2023-03-10T01:29:12.905Z,0.73
2023-03-10T01:31:41.944Z,0.90
2023-03-10T01:34:14.264Z,0.65
2023-03-10T01:36:42.393Z,0.75
2023-03-10T01:39:09.822Z,0.80
2023-03-10T01:41:41.760Z,0.98
2023-03-10T01:44:22.510Z,0.90
2023-03-10T01:46:56.111Z,0.90
2023-03-10T01:49:40.136Z,0.88
2023-03-10T01:52:18.876Z,1.23
2023-03-10T01:55:15.156Z,0.70
2023-03-10T01:57:54.229Z,0.75
2023-03-10T02:00:33.180Z,0.68
2023-03-10T02:03:22.059Z,0.63
2023-03-10T02:06:05.083Z,0.70
2023-03-10T02:08:41.814Z,0.60
2023-03-10T02:11:13.475Z,0.52
2023-03-10T02:13:46.456Z,0.60
2023-03-10T02:16:34.491Z,0.73
2023-03-10T02:19:08.559Z,0.80
2023-03-10T02:22:17.308Z,0.90
2023-03-10T02:25:31.004Z,1.20
2023-03-10T02:28:02.634Z,1.08
2023-03-10T02:30:43.921Z,1.30
2023-03-10T02:33:42.614Z,1.20
2023-03-10T02:36:23.852Z,1.38
2023-03-10T02:38:51.961Z,2.15
2023-03-10T02:41:38.813Z,1.50
2023-03-10T02:44:13.755Z,4.60
2023-03-10T02:46:41.342Z,4.38
2023-03-10T02:49:12.904Z,4.82
2023-03-10T02:51:46.857Z,4.75
2023-03-10T02:54:29.087Z,5.07
2023-03-10T02:56:58.147Z,5.20
2023-03-10T02:59:25.615Z,5.53
2023-03-10T03:01:54.131Z,5.15
2023-03-10T03:04:21.211Z,4.78
2023-03-10T03:06:48.846Z,7.00
2023-03-10T03:09:16.065Z,7.93
2023-03-10T03:11:47.941Z,7.40
2023-03-10T03:14:19.401Z,6.25
2023-03-10T03:16:49.464Z,3.92
2023-03-10T03:19:16.642Z,4.50
2023-03-10T03:21:50.168Z,3.30
2023-03-10T03:24:27.411Z,2.63
2023-03-10T03:26:54.412Z,3.03
2023-03-10T03:29:25.222Z,3.67
2023-03-10T03:31:53.723Z,3.38
2023-03-10T03:34:27.519Z,2.92
2023-03-10T03:57:08.344Z,5.03
2023-03-10T03:59:39.326Z,5.60
2023-03-10T04:02:06.678Z,5.53
2023-03-10T04:04:34.264Z,4.10
2023-03-10T04:07:03.145Z,3.33
2023-03-10T04:09:30.942Z,2.97
2023-03-10T04:11:58.079Z,1.50
2023-03-10T04:14:26.933Z,2.30
2023-03-10T04:16:55.736Z,2.60
2023-03-10T04:19:23.225Z,2.47
2023-03-10T04:21:55.493Z,2.13
2023-03-10T04:24:23.970Z,1.77
2023-03-10T04:26:54.182Z,1.80
2023-03-10T04:29:24.506Z,1.70
2023-03-10T04:32:05.135Z,2.05
2023-03-10T04:34:37.449Z,2.63
2023-03-10T04:37:05.095Z,2.17
2023-03-10T04:39:33.133Z,2.50
2023-03-10T04:42:01.016Z,2.00
2023-03-10T04:44:31.357Z,2.67
2023-03-10T04:47:02.635Z,2.83
2023-03-10T04:49:32.303Z,3.85
2023-03-10T04:52:00.788Z,3.88
2023-03-10T04:54:28.616Z,3.78
2023-03-10T04:56:56.954Z,2.67
2023-03-10T04:59:24.570Z,2.78
2023-03-10T05:01:54.774Z,3.22
2023-03-10T05:04:23.415Z,4.45
2023-03-10T05:06:53.391Z,3.22
2023-03-10T05:09:29.782Z,2.90
2023-03-10T05:11:57.372Z,2.60
2023-03-10T05:14:25.918Z,2.80
2023-03-10T05:16:54.085Z,2.53
2023-03-10T05:19:24.565Z,2.17
2023-03-10T05:21:54.118Z,2.30
2023-03-10T05:24:23.993Z,3.10
2023-03-10T05:26:56.634Z,2.20
2023-03-10T05:29:25.954Z,2.05
2023-03-10T05:32:00.148Z,1.85
2023-03-10T05:34:40.119Z,2.38
2023-03-10T05:37:09.407Z,1.50
2023-03-10T05:39:37.484Z,1.92
2023-03-10T05:42:16.308Z,1.98
2023-03-10T05:44:45.478Z,1.73
2023-03-10T05:47:14.924Z,1.80
2023-03-10T05:49:43.551Z,1.77
2023-03-10T05:52:11.970Z,1.50
2023-03-10T05:54:40.886Z,1.60
2023-03-10T05:57:09.104Z,1.70
2023-03-10T05:59:52.082Z,1.40
2023-03-10T06:02:43.811Z,2.75
2023-03-10T06:05:13.966Z,4.07
2023-03-10T06:07:43.450Z,3.05
2023-03-10T06:10:12.921Z,4.25
2023-03-10T06:12:41.342Z,1.77
2023-03-10T06:15:11.715Z,1.95
2023-03-10T06:17:40.141Z,2.22
2023-03-10T06:20:12.674Z,2.40
2023-03-10T06:22:48.361Z,2.25
2023-03-10T06:25:21.367Z,1.58
2023-03-10T06:27:49.169Z,2.00
2023-03-10T06:30:16.977Z,1.65
2023-03-10T06:32:44.021Z,1.70
2023-03-10T06:35:14.143Z,1.70
2023-03-10T06:37:42.587Z,2.33
2023-03-10T06:40:13.504Z,2.17
2023-03-10T06:42:41.420Z,2.10
2023-03-10T06:45:11.078Z,2.83
2023-03-10T06:47:38.046Z,3.47
2023-03-10T06:50:08.092Z,2.33
2023-03-10T06:52:35.598Z,2.78
2023-03-10T06:55:03.183Z,3.35
2023-03-10T06:57:30.407Z,3.25
2023-03-10T07:00:22.074Z,2.70
2023-03-10T07:02:51.485Z,3.63
2023-03-10T07:05:18.568Z,2.53
2023-03-10T07:07:45.724Z,2.38
2023-03-10T07:10:13.017Z,2.20
2023-03-10T07:12:40.080Z,2.30
2023-03-10T07:15:07.970Z,2.25
2023-03-10T07:17:34.902Z,2.75
2023-03-10T07:20:02.411Z,2.38
2023-03-10T07:22:29.393Z,2.30
2023-03-10T07:24:56.765Z,1.90
2023-03-10T07:27:24.009Z,2.35
2023-03-10T07:29:50.976Z,2.03
2023-03-10T07:32:17.906Z,2.60
2023-03-10T07:34:50.369Z,3.20
2023-03-10T07:37:20.665Z,2.50
2023-03-10T07:40:00.234Z,2.22
2023-03-10T07:42:27.138Z,1.92
2023-03-10T07:44:53.936Z,2.67
2023-03-10T07:47:20.822Z,2.47
2023-03-10T07:49:47.863Z,2.70
2023-03-10T07:52:18.149Z,2.00
2023-03-10T07:54:45.324Z,2.35
2023-03-10T07:57:14.385Z,2.03
2023-03-10T07:59:42.516Z,2.20
2023-03-10T08:02:13.602Z,2.38
2023-03-10T08:04:41.366Z,2.50
2023-03-10T08:07:09.208Z,2.33
2023-03-10T08:09:36.935Z,2.20
2023-03-10T08:12:04.914Z,1.92
2023-03-10T08:14:32.850Z,1.90
2023-03-10T08:17:01.334Z,2.20
2023-03-10T08:19:28.820Z,3.45
2023-03-10T08:22:02.065Z,4.15
2023-03-10T08:24:29.118Z,4.18
2023-03-10T08:26:56.064Z,3.88
2023-03-10T08:29:25.994Z,2.97
2023-03-10T08:31:53.067Z,2.45
2023-03-10T08:34:20.611Z,1.80
2023-03-10T08:36:47.594Z,2.95
2023-03-10T08:39:15.184Z,2.72
2023-03-10T08:41:49.253Z,2.30
2023-03-10T08:44:18.894Z,2.70
2023-03-10T08:46:49.544Z,3.00
2023-03-10T08:49:19.675Z,2.95
2023-03-10T08:51:48.756Z,3.05
2023-03-10T08:54:19.007Z,2.25
2023-03-10T08:56:46.453Z,3.45
2023-03-10T08:59:13.584Z,3.60
2023-03-10T09:01:40.814Z,2.58
2023-03-10T09:04:10.545Z,3.00
2023-03-10T09:06:38.704Z,3.28
2023-03-10T09:09:10.125Z,2.30
2023-03-10T09:11:40.407Z,3.00
2023-03-10T09:14:10.046Z,2.95
2023-03-10T09:16:38.741Z,3.20
2023-03-10T09:19:07.795Z,2.75
2023-03-10T09:22:23.028Z,2.45
2023-03-10T09:24:48.537Z,2.72
2023-03-10T09:27:15.413Z,3.83
2023-03-10T09:29:43.658Z,3.08
2023-03-10T09:32:13.663Z,2.63
2023-03-10T09:34:41.631Z,2.17
2023-03-10T09:37:08.768Z,3.45
2023-03-10T09:39:35.746Z,3.58
2023-03-10T09:42:35.792Z,2.80
2023-03-10T09:45:56.049Z,2.83
2023-03-10T09:48:51.156Z,2.38
2023-03-10T09:51:28.844Z,2.20
2023-03-10T09:54:51.669Z,2.17
2023-03-10T09:57:22.839Z,3.05
2023-03-10T09:59:56.755Z,2.97
2023-03-10T10:02:32.094Z,2.13
2023-03-10T10:05:06.810Z,2.15
2023-03-10T10:07:51.353Z,2.88
2023-03-10T10:10:36.510Z,2.17
2023-03-10T10:13:15.164Z,2.42
2023-03-10T10:16:18.312Z,1.90
2023-03-10T10:19:05.478Z,2.38
2023-03-10T10:21:51.545Z,2.53
2023-03-10T10:24:23.197Z,2.10
2023-03-10T10:26:50.165Z,2.20
2023-03-10T10:29:25.630Z,1.83
2023-03-10T10:32:16.443Z,2.28
2023-03-10T10:34:46.808Z,2.80
2023-03-10T10:37:43.365Z,2.42
2023-03-10T10:40:26.022Z,3.03
2023-03-10T10:42:55.939Z,1.90
2023-03-10T10:45:39.837Z,1.88
2023-03-10T10:48:36.747Z,2.15
2023-03-10T10:51:05.878Z,1.77
2023-03-10T10:53:34.622Z,2.45
2023-03-10T10:56:16.233Z,2.00
2023-03-10T10:59:06.622Z,1.63
2023-03-10T11:01:56.154Z,2.08
2023-03-10T11:04:26.035Z,2.13
2023-03-10T11:07:08.100Z,2.10
2023-03-10T11:09:35.128Z,1.70
2023-03-10T11:12:08.408Z,1.90
2023-03-10T11:14:57.715Z,2.00
2023-03-10T11:17:56.114Z,1.98
2023-03-10T11:20:50.529Z,2.03
2023-03-10T11:23:34.643Z,1.95
2023-03-10T11:26:11.307Z,2.03
2023-03-10T11:28:56.866Z,1.92
2023-03-10T11:31:40.189Z,1.80
2023-03-10T11:34:06.994Z,1.70
2023-03-10T11:36:55.370Z,2.10
2023-03-10T11:40:19.781Z,1.75
2023-03-10T11:43:36.856Z,1.80
2023-03-10T11:46:29.663Z,1.45
2023-03-10T11:49:24.278Z,1.85
2023-03-10T11:51:59.576Z,1.50
2023-03-10T11:54:33.107Z,1.27
2023-03-10T11:57:04.358Z,1.48
2023-03-10T11:59:36.158Z,1.77
2023-03-10T12:02:20.078Z,1.77
2023-03-10T12:05:01.357Z,1.42
2023-03-10T12:07:40.684Z,2.42
2023-03-10T12:10:16.973Z,1.38
2023-03-10T12:12:48.330Z,1.95
2023-03-10T12:15:30.248Z,2.17
2023-03-10T12:17:57.588Z,2.30
2023-03-10T12:20:33.507Z,2.20
2023-03-10T12:23:24.873Z,2.05
2023-03-10T12:25:51.739Z,1.60
2023-03-10T12:28:29.369Z,1.90
2023-03-10T12:31:10.618Z,1.50
2023-03-10T12:33:45.451Z,1.48
2023-03-10T12:36:35.356Z,1.48
2023-03-10T12:39:28.386Z,1.77
2023-03-10T12:42:30.022Z,1.50
2023-03-10T12:45:05.616Z,1.17
2023-03-10T12:47:52.615Z,1.17
2023-03-10T12:50:35.819Z,1.05
2023-03-10T12:53:11.275Z,1.65
2023-03-10T12:55:42.087Z,1.38
2023-03-10T12:58:23.574Z,2.08
2023-03-10T13:01:02.249Z,1.70
2023-03-10T13:03:50.989Z,1.50
2023-03-10T13:06:30.097Z,1.83
2023-03-10T13:09:21.177Z,2.10
2023-03-10T13:12:00.520Z,2.25
2023-03-10T13:14:40.910Z,2.42
2023-03-10T13:17:27.473Z,1.90
2023-03-10T13:20:20.857Z,1.30
2023-03-10T13:23:00.126Z,1.30
2023-03-10T13:25:28.457Z,1.10
2023-03-10T13:27:57.467Z,1.02
2023-03-10T13:30:27.859Z,1.30
2023-03-10T13:33:02.387Z,1.83
2023-03-10T13:35:38.811Z,1.10
2023-03-10T13:38:13.104Z,1.60
2023-03-10T13:40:49.265Z,1.38
2023-03-10T13:43:35.083Z,1.95
2023-03-10T13:46:09.385Z,2.25
2023-03-10T13:48:38.947Z,2.00
2023-03-10T13:51:39.020Z,4.25
2023-03-10T13:54:38.453Z,4.68
2023-03-10T13:57:31.466Z,3.60
2023-03-10T14:00:05.854Z,2.88
2023-03-10T14:02:45.770Z,2.20
2023-03-10T14:05:47.448Z,2.35
2023-03-10T14:08:32.407Z,2.70
2023-03-10T14:11:43.993Z,3.20
2023-03-10T14:14:30.017Z,3.30
2023-03-10T14:17:11.449Z,2.90
2023-03-10T14:19:43.007Z,3.50
2023-03-10T14:22:43.034Z,3.78
2023-03-10T14:25:25.795Z,3.60
2023-03-10T14:28:06.629Z,3.28
2023-03-10T14:30:45.202Z,3.78
2023-03-10T14:33:16.251Z,3.75
2023-03-10T14:35:46.008Z,3.72
2023-03-10T14:38:16.439Z,2.00
2023-03-10T14:40:48.775Z,2.83
2023-03-10T14:43:21.244Z,2.92
2023-03-10T14:45:51.318Z,2.60
2023-03-10T14:48:25.376Z,2.22
2023-03-10T14:50:53.732Z,1.40
2023-03-10T14:53:25.045Z,1.23
2023-03-10T14:55:55.877Z,1.40
2023-03-10T14:58:33.143Z,0.95
2023-03-10T15:01:00.943Z,1.10
2023-03-10T15:03:28.079Z,2.75
2023-03-10T15:05:55.016Z,2.97
2023-03-10T15:08:21.984Z,2.70
2023-03-10T15:10:51.202Z,2.05
2023-03-10T15:13:24.635Z,2.33
2023-03-10T15:15:53.102Z,2.25
2023-03-10T15:18:34.892Z,3.03
2023-03-10T15:21:05.548Z,2.30
2023-03-10T15:23:47.538Z,3.72
2023-03-10T15:26:15.057Z,1.85
2023-03-10T15:28:47.622Z,2.35
2023-03-10T15:31:15.533Z,2.50
2023-03-10T15:33:47.830Z,3.40
2023-03-10T15:36:33.470Z,2.75
2023-03-10T15:39:01.209Z,1.77
2023-03-10T15:41:41.067Z,1.60
2023-03-10T15:47:30.974Z,1.20
2023-03-10T15:49:58.084Z,1.17
2023-03-10T15:52:24.880Z,0.90
2023-03-10T15:54:51.720Z,1.15
2023-03-10T15:57:18.620Z,0.88
2023-03-10T15:59:45.520Z,0.60
2023-03-10T16:02:12.906Z,0.80
2023-03-10T16:04:39.839Z,0.95
2023-03-10T16:07:07.550Z,0.80
2023-03-10T16:09:34.326Z,1.00
2023-03-10T16:12:02.974Z,0.98
2023-03-10T16:14:32.991Z,0.80
2023-03-10T16:17:00.334Z,0.95
2023-03-10T16:19:28.198Z,1.25
2023-03-10T16:21:55.323Z,1.42
2023-03-10T16:24:22.684Z,2.15
2023-03-10T16:26:49.516Z,1.90
2023-03-10T16:29:17.038Z,1.80
2023-03-10T16:31:43.976Z,1.52
2023-03-10T16:34:10.923Z,1.63
2023-03-10T16:36:37.821Z,1.65
2023-03-10T16:39:11.735Z,1.52
2023-03-10T16:41:38.945Z,1.73
2023-03-10T16:44:07.673Z,2.08
2023-03-10T16:46:34.810Z,2.30
2023-03-10T16:49:02.396Z,2.33
2023-03-10T16:51:42.402Z,2.55
2023-03-10T16:54:21.882Z,2.58
2023-03-10T16:56:59.049Z,2.92
2023-03-10T16:59:25.855Z,2.70
2023-03-10T17:01:53.127Z,2.40
2023-03-10T17:04:20.498Z,2.92
2023-03-10T17:06:47.790Z,3.03
2023-03-10T17:09:16.071Z,3.50
2023-03-10T17:11:51.933Z,3.40
2023-03-10T17:14:21.057Z,2.75
2023-03-10T17:16:48.307Z,2.83
2023-03-10T17:19:22.497Z,2.30
2023-03-10T17:21:52.107Z,2.22
2023-03-10T17:24:21.025Z,2.47
2023-03-10T17:26:48.008Z,2.38
2023-03-10T17:29:18.012Z,2.45
2023-03-10T17:31:49.008Z,2.00
2023-03-10T17:34:15.994Z,2.05
2023-03-10T17:36:43.743Z,3.20
2023-03-10T17:39:22.588Z,1.83
2023-03-10T17:41:49.870Z,2.10
2023-03-10T17:44:17.428Z,2.50
2023-03-10T17:46:45.307Z,1.92
2023-03-10T17:49:14.552Z,2.75
2023-03-10T17:51:44.122Z,2.40
2023-03-10T17:54:29.297Z,2.40
2023-03-10T17:59:22.929Z,2.72
2023-03-10T18:01:50.027Z,3.05
2023-03-10T18:04:17.168Z,2.70
2023-03-10T18:06:47.272Z,3.33
2023-03-10T18:09:15.155Z,2.97
2023-03-10T18:11:42.093Z,3.20
2023-03-10T18:14:09.206Z,2.65
2023-03-10T18:16:39.953Z,2.83
2023-03-10T18:19:10.467Z,2.60
2023-03-10T18:21:38.475Z,2.42
2023-03-10T18:24:06.462Z,2.80
2023-03-10T18:26:33.724Z,2.85
2023-03-10T18:29:02.621Z,2.60
2023-03-10T18:31:32.959Z,2.63
2023-03-10T18:34:01.185Z,2.72
2023-03-10T18:36:28.684Z,3.03
2023-03-10T18:38:56.366Z,3.28
2023-03-10T18:41:29.972Z,3.47
2023-03-10T18:43:57.098Z,2.95
2023-03-10T18:46:27.013Z,2.63
2023-03-10T18:48:55.934Z,2.80
2023-03-10T18:51:26.303Z,3.25
2023-03-10T18:53:54.333Z,3.15
2023-03-10T18:56:22.367Z,3.47
2023-03-10T18:58:49.379Z,2.35
2023-03-10T19:01:22.457Z,2.88
2023-03-10T19:03:49.857Z,2.38
2023-03-10T19:06:16.858Z,2.35
2023-03-10T19:08:44.254Z,2.90
2023-03-10T19:11:11.595Z,2.80
2023-03-10T19:13:44.123Z,2.97
2023-03-10T19:16:11.945Z,2.20
2023-03-10T19:18:39.709Z,2.13
2023-03-10T19:21:06.933Z,2.42
2023-03-10T19:23:34.969Z,2.42
2023-03-10T19:26:03.150Z,2.40
2023-03-10T19:28:30.579Z,2.30
2023-03-10T19:30:57.594Z,2.55
2023-03-10T19:33:27.205Z,2.03
2023-03-10T19:36:03.492Z,2.05
2023-03-10T19:38:35.749Z,2.00
2023-03-10T19:41:05.256Z,2.00
2023-03-10T19:43:32.868Z,2.05
2023-03-10T19:46:08.410Z,1.80
2023-03-10T19:48:35.644Z,1.48
2023-03-10T19:51:02.748Z,3.10
2023-03-10T19:53:34.650Z,2.00
2023-03-10T19:56:07.434Z,2.10
2023-03-10T19:58:34.456Z,1.50
2023-03-10T20:01:01.531Z,1.80
2023-03-10T20:03:32.018Z,3.25
2023-03-10T20:06:01.523Z,2.45
2023-03-10T20:08:28.762Z,2.55
2023-03-10T20:11:03.220Z,3.05
2023-03-10T20:13:33.232Z,2.60
2023-03-10T20:16:03.447Z,4.63
2023-03-10T20:18:40.501Z,2.95
2023-03-10T20:21:15.012Z,3.40
2023-03-10T20:23:50.252Z,3.03
2023-03-10T20:26:19.212Z,2.40
2023-03-10T20:28:48.683Z,2.90
2023-03-10T20:31:22.957Z,2.00
2023-03-10T20:33:52.913Z,2.13
2023-03-10T20:36:23.045Z,2.00
2023-03-10T20:38:54.569Z,2.75
2023-03-10T20:41:22.705Z,3.08
2023-03-10T20:43:55.112Z,2.97
2023-03-10T20:46:24.919Z,2.47
2023-03-10T20:48:55.544Z,2.10
2023-03-10T20:51:23.419Z,2.35
2023-03-10T20:53:51.902Z,2.65
2023-03-10T20:56:19.091Z,2.20
2023-03-10T20:58:47.297Z,3.03
2023-03-10T21:01:20.987Z,2.70
2023-03-10T21:03:48.322Z,2.58
2023-03-10T21:06:15.887Z,2.80
2023-03-10T21:08:43.263Z,2.30
2023-03-10T21:11:10.415Z,3.00
2023-03-10T21:13:39.409Z,2.53
2023-03-10T21:16:09.558Z,2.47
2023-03-10T21:18:37.416Z,2.08
2023-03-10T21:21:07.486Z,2.40
2023-03-10T21:23:41.533Z,2.97
2023-03-10T21:26:20.510Z,2.70
2023-03-10T21:28:51.352Z,2.45
2023-03-10T21:31:20.803Z,3.10
2023-03-10T21:33:51.897Z,2.90
2023-03-10T21:36:29.688Z,3.45
2023-03-10T21:39:09.088Z,2.95
2023-03-10T21:41:45.934Z,3.05
2023-03-10T21:44:16.166Z,3.17
2023-03-10T21:46:51.214Z,3.13
2023-03-10T21:49:21.032Z,3.08
2023-03-10T21:51:49.076Z,2.97
2023-03-10T21:54:16.123Z,2.65
2023-03-10T21:56:55.236Z,2.78
2023-03-10T21:59:39.660Z,2.50
2023-03-10T22:02:09.120Z,2.42
2023-03-10T22:04:36.988Z,2.08
2023-03-10T22:07:04.029Z,2.00
2023-03-10T22:09:31.942Z,1.48
2023-03-10T22:11:59.272Z,1.65
2023-03-10T22:14:27.438Z,1.60
2023-03-10T22:16:55.830Z,1.38
2023-03-10T22:19:23.353Z,1.80
2023-03-10T22:21:51.456Z,1.70
2023-03-10T22:24:19.826Z,1.55
2023-03-10T22:26:51.278Z,1.65
2023-03-10T22:29:20.799Z,1.70
2023-03-10T22:31:51.822Z,1.92
2023-03-10T22:34:23.947Z,1.42
2023-03-10T22:36:51.324Z,1.58
2023-03-10T22:39:18.545Z,1.75
2023-03-10T22:41:45.988Z,1.67
2023-03-10T22:44:13.891Z,2.42
2023-03-10T22:46:44.892Z,1.30
2023-03-10T22:49:12.699Z,1.50
2023-03-10T22:51:40.620Z,1.67
2023-03-10T22:54:08.741Z,1.48
2023-03-10T22:56:36.236Z,1.42
2023-03-10T22:59:03.946Z,1.70
2023-03-10T23:01:31.244Z,1.30
2023-03-10T23:03:59.163Z,1.33
2023-03-10T23:06:29.345Z,1.42
2023-03-10T23:08:57.602Z,1.30
2023-03-10T23:11:24.797Z,1.50
2023-03-10T23:13:52.235Z,1.65
2023-03-10T23:16:19.850Z,1.20
2023-03-10T23:18:47.269Z,1.40
2023-03-10T23:21:14.894Z,1.95
2023-03-10T23:23:43.954Z,1.20
2023-03-10T23:26:11.682Z,3.42
2023-03-10T23:28:38.972Z,1.65
2023-03-10T23:31:07.737Z,2.13
2023-03-10T23:33:37.471Z,2.13
2023-03-10T23:36:06.413Z,1.33
2023-03-10T23:38:35.962Z,1.40
2023-03-10T23:41:03.162Z,2.78
2023-03-10T23:43:31.735Z,2.20
2023-03-10T23:46:02.536Z,1.30
2023-03-10T23:48:29.870Z,1.70
2023-03-10T23:50:57.342Z,1.63
2023-03-10T23:53:25.033Z,2.40
2023-03-10T23:56:01.420Z,2.53
2023-03-10T23:58:40.522Z,2.63
